Time;durP1;ratioP1;P1;durP2;ratioP2;P2;SDS_P1;SDS_P2;PMS_P1;PMS_P2;Temp;Humidity;BMP_temperature;BMP_pressure;BME280_temperature;BME280_humidity;BME280_pressure;Samples;Min_cycle;Max_cycle;Signal;HPM_P1;HPM_P2
2023/10/15 00:00:50;;;;;;;4.53;1.05;;;;;;;;;;5282713;28;20028;-79
2023/10/15 00:03:21;;;;;;;4.95;0.82;;;;;;;;;;5283983;28;20021;-81
2023/10/15 00:05:52;;;;;;;4.46;1.00;;;;;;;;;;5283639;28;20034;-79
2023/10/15 00:08:23;;;;;;;6.57;1.08;;;;;;;;;;5282972;28;20028;-80
2023/10/15 00:10:54;;;;;;;5.50;1.00;;;;;;;;;;5283482;28;20024;-79
2023/10/15 00:13:25;;;;;;;5.05;1.00;;;;;;;;;;5283480;28;20069;-79
2023/10/15 00:15:57;;;;;;;4.97;1.15;;;;;;;;;;5282568;28;20056;-80
2023/10/15 00:18:29;;;;;;;3.60;0.90;;;;;;;;;;5283553;28;20043;-81
2023/10/15 00:21:11;;;;;;;5.28;1.23;;;;;;;;;;5283434;28;20048;-81
2023/10/15 00:23:44;;;;;;;6.15;1.42;;;;;;;;;;5282644;28;20051;-81
2023/10/15 00:26:15;;;;;;;5.20;1.13;;;;;;;;;;5283257;28;20027;-79
2023/10/15 00:28:46;;;;;;;3.85;0.95;;;;;;;;;;5282307;28;20028;-82
2023/10/15 00:31:17;;;;;;;4.43;1.05;;;;;;;;;;5283604;28;20016;-81
2023/10/15 00:33:49;;;;;;;7.03;1.10;;;;;;;;;;5283024;28;20023;-80
2023/10/15 00:36:20;;;;;;;4.32;0.90;;;;;;;;;;5282683;28;20020;-81
2023/10/15 00:38:51;;;;;;;3.58;1.00;;;;;;;;;;5282740;28;20063;-80
2023/10/15 00:41:22;;;;;;;4.25;0.77;;;;;;;;;;5283010;28;20025;-81
2023/10/15 00:43:59;;;;;;;4.80;0.88;;;;;;;;;;5282019;28;20364;-81
2023/10/15 00:46:37;;;;;;;4.82;0.80;;;;;;;;;;5282484;28;20369;-81
2023/10/15 00:49:13;;;;;;;3.65;0.82;;;;;;;;;;5282681;28;20531;-80
2023/10/15 00:51:44;;;;;;;2.60;0.60;;;;;;;;;;5282158;28;20479;-79
2023/10/15 00:54:16;;;;;;;4.45;1.38;;;;;;;;;;5283141;28;20012;-78
2023/10/15 00:56:54;;;;;;;3.58;1.08;;;;;;;;;;5282254;28;20025;-79
2023/10/15 00:59:43;;;;;;;4.13;0.60;;;;;;;;;;5282695;28;20027;-80
2023/10/15 01:02:21;;;;;;;3.78;0.68;;;;;;;;;;5282682;28;20360;-80
2023/10/15 01:04:57;;;;;;;5.47;0.68;;;;;;;;;;5281911;28;20048;-80
2023/10/15 01:07:45;;;;;;;5.35;1.10;;;;;;;;;;5282539;28;20360;-81
2023/10/15 01:10:31;;;;;;;2.92;0.50;;;;;;;;;;5283027;28;20008;-79
2023/10/15 01:13:21;;;;;;;4.03;0.70;;;;;;;;;;5281727;28;20020;-78
2023/10/15 01:15:54;;;;;;;5.25;0.88;;;;;;;;;;5282019;28;20040;-79
2023/10/15 01:18:25;;;;;;;3.08;0.88;;;;;;;;;;5281150;28;20020;-79
2023/10/15 01:21:01;;;;;;;3.17;0.90;;;;;;;;;;5282233;28;20371;-79
2023/10/15 01:23:38;;;;;;;4.70;0.80;;;;;;;;;;5282379;28;20044;-79
2023/10/15 01:26:15;;;;;;;5.35;1.00;;;;;;;;;;5281486;28;20371;-79
2023/10/15 01:28:48;;;;;;;2.92;0.93;;;;;;;;;;5281840;28;20062;-79
2023/10/15 01:31:19;;;;;;;2.95;0.70;;;;;;;;;;5282835;28;20008;-80
2023/10/15 01:33:53;;;;;;;4.97;0.80;;;;;;;;;;5281598;28;20009;-80
2023/10/15 01:36:28;;;;;;;6.07;0.77;;;;;;;;;;5282404;28;20024;-79
2023/10/15 01:39:09;;;;;;;5.20;1.00;;;;;;;;;;5282024;28;20410;-80
2023/10/15 01:41:42;;;;;;;4.95;1.02;;;;;;;;;;5282400;28;20081;-79
2023/10/15 01:44:18;;;;;;;4.88;1.00;;;;;;;;;;5282068;28;20095;-79
2023/10/15 01:47:06;;;;;;;4.55;0.90;;;;;;;;;;5279568;28;20044;-79
2023/10/15 01:49:38;;;;;;;4.18;0.82;;;;;;;;;;5281654;28;20017;-80
2023/10/15 01:52:09;;;;;;;4.35;0.80;;;;;;;;;;5279633;28;20017;-77
2023/10/15 01:54:45;;;;;;;4.68;1.02;;;;;;;;;;5279183;28;20029;-80
2023/10/15 01:57:16;;;;;;;6.55;1.15;;;;;;;;;;5280206;28;20017;-80
2023/10/15 01:59:47;;;;;;;3.88;0.77;;;;;;;;;;5279322;28;20031;-79
2023/10/15 02:02:23;;;;;;;5.30;1.10;;;;;;;;;;5279200;28;20366;-79
2023/10/15 02:04:57;;;;;;;3.33;1.00;;;;;;;;;;5279619;28;20107;-80
2023/10/15 02:07:31;;;;;;;3.38;0.70;;;;;;;;;;5278924;28;20335;-79
2023/10/15 02:10:05;;;;;;;2.97;0.88;;;;;;;;;;5279899;28;20016;-79
2023/10/15 02:12:36;;;;;;;4.05;0.80;;;;;;;;;;5279793;28;20028;-79
2023/10/15 02:15:22;;;;;;;6.85;0.98;;;;;;;;;;5279205;28;20051;-80
2023/10/15 02:17:53;;;;;;;4.15;1.15;;;;;;;;;;5279972;28;20345;-79
2023/10/15 02:20:44;;;;;;;4.32;0.90;;;;;;;;;;5281741;28;20103;-79
2023/10/15 02:23:16;;;;;;;4.03;1.13;;;;;;;;;;5281331;28;20498;-78
2023/10/15 02:25:56;;;;;;;7.28;1.10;;;;;;;;;;5281678;28;20040;-79
2023/10/15 02:28:36;;;;;;;4.38;0.98;;;;;;;;;;5281208;28;20029;-80
2023/10/15 02:33:38;;;;;;;5.93;1.27;;;;;;;;;;5285787;28;20028;-78
2023/10/15 02:36:15;;;;;;;3.22;0.63;;;;;;;;;;5284655;28;20066;-79
2023/10/15 02:38:52;;;;;;;6.28;1.00;;;;;;;;;;5285186;28;20016;-80
2023/10/15 02:41:40;;;;;;;3.42;0.70;;;;;;;;;;5285285;28;20025;-79
2023/10/15 02:44:15;;;;;;;2.30;0.70;;;;;;;;;;5284715;28;20020;-79
2023/10/15 02:46:50;;;;;;;4.43;0.98;;;;;;;;;;5284454;28;20041;-78
2023/10/15 02:49:25;;;;;;;4.45;1.08;;;;;;;;;;5284980;28;20032;-79
2023/10/15 02:51:56;;;;;;;1.98;0.90;;;;;;;;;;5285257;28;20095;-79
2023/10/15 02:54:36;;;;;;;5.45;1.10;;;;;;;;;;5285380;28;20124;-79
2023/10/15 02:57:15;;;;;;;2.50;0.80;;;;;;;;;;5284354;28;20070;-80
2023/10/15 02:59:52;;;;;;;4.43;1.02;;;;;;;;;;5284747;28;20433;-79
2023/10/15 03:02:25;;;;;;;4.40;0.90;;;;;;;;;;5284514;28;20016;-81
2023/10/15 03:04:56;;;;;;;4.57;0.90;;;;;;;;;;5284162;28;20017;-80
2023/10/15 03:07:30;;;;;;;3.13;0.95;;;;;;;;;;5284551;28;20032;-80
2023/10/15 03:10:03;;;;;;;3.30;0.75;;;;;;;;;;5284726;28;20027;-79
2023/10/15 03:12:34;;;;;;;5.05;1.15;;;;;;;;;;5283901;28;20059;-80
2023/10/15 03:15:08;;;;;;;2.60;0.70;;;;;;;;;;5284522;28;20448;-79
2023/10/15 03:17:46;;;;;;;3.75;0.90;;;;;;;;;;5284092;28;20024;-80
2023/10/15 03:22:52;;;;;;;3.60;0.75;;;;;;;;;;5284168;28;20032;-79
2023/10/15 03:25:23;;;;;;;3.67;0.75;;;;;;;;;;5283733;28;20035;-79
2023/10/15 03:27:54;;;;;;;2.67;0.70;;;;;;;;;;5284355;28;20479;-79
2023/10/15 03:30:26;;;;;;;3.50;0.60;;;;;;;;;;5284466;28;20479;-78
2023/10/15 03:33:00;;;;;;;3.08;0.60;;;;;;;;;;5283677;28;20033;-77
2023/10/15 03:35:38;;;;;;;2.25;0.40;;;;;;;;;;5284181;28;20047;-80
2023/10/15 03:38:14;;;;;;;3.20;0.70;;;;;;;;;;5284297;28;20360;-80
2023/10/15 03:40:49;;;;;;;3.40;0.60;;;;;;;;;;5283047;28;20025;-78
2023/10/15 03:43:21;;;;;;;2.03;0.50;;;;;;;;;;5284548;28;20021;-79
2023/10/15 03:45:52;;;;;;;2.05;0.50;;;;;;;;;;5282664;28;20090;-79
2023/10/15 03:48:30;;;;;;;3.17;0.65;;;;;;;;;;5284003;28;20522;-79
2023/10/15 03:51:05;;;;;;;1.52;0.40;;;;;;;;;;5284132;28;20100;-79
2023/10/15 03:53:36;;;;;;;2.22;0.50;;;;;;;;;;5283229;28;20528;-79
2023/10/15 03:56:08;;;;;;;4.38;0.50;;;;;;;;;;5283846;28;20020;-79
2023/10/15 03:58:39;;;;;;;1.70;0.30;;;;;;;;;;5283776;28;20103;-79
2023/10/15 04:01:20;;;;;;;1.52;0.50;;;;;;;;;;5283061;28;20028;-79
2023/10/15 04:03:51;;;;;;;1.23;0.30;;;;;;;;;;5283627;28;20017;-78
2023/10/15 04:06:22;;;;;;;3.00;0.50;;;;;;;;;;5284009;28;20093;-78
2023/10/15 04:09:09;;;;;;;1.85;0.50;;;;;;;;;;5282649;28;20115;-79
2023/10/15 04:11:43;;;;;;;1.80;0.40;;;;;;;;;;5283689;28;20023;-80
2023/10/15 04:14:25;;;;;;;2.63;0.40;;;;;;;;;;5282637;28;20086;-80
2023/10/15 04:17:00;;;;;;;2.50;0.50;;;;;;;;;;5283424;28;20020;-78
2023/10/15 04:19:31;;;;;;;1.63;0.50;;;;;;;;;;5283247;28;20062;-77
2023/10/15 04:22:14;;;;;;;2.70;0.50;;;;;;;;;;5282799;28;20473;-77
2023/10/15 04:24:50;;;;;;;4.13;0.47;;;;;;;;;;5283039;28;20012;-77
2023/10/15 04:27:26;;;;;;;3.40;0.50;;;;;;;;;;5283426;28;20115;-77
2023/10/15 04:30:00;;;;;;;3.25;0.45;;;;;;;;;;5282254;28;20353;-77
2023/10/15 04:32:45;;;;;;;4.57;0.60;;;;;;;;;;5283257;28;20506;-78
2023/10/15 04:35:25;;;;;;;1.65;0.50;;;;;;;;;;5282532;28;20027;-77
2023/10/15 04:37:58;;;;;;;1.92;0.30;;;;;;;;;;5283030;28;20016;-77
2023/10/15 04:40:29;;;;;;;1.02;0.30;;;;;;;;;;5282865;28;20472;-78
2023/10/15 04:43:00;;;;;;;1.92;0.50;;;;;;;;;;5282226;28;20024;-78
2023/10/15 04:48:13;;;;;;;2.22;0.60;;;;;;;;;;5282514;28;20045;-78
2023/10/15 04:50:45;;;;;;;3.05;0.55;;;;;;;;;;5281429;28;20020;-78
2023/10/15 04:53:23;;;;;;;2.17;0.50;;;;;;;;;;5282091;28;20021;-78
2023/10/15 04:55:56;;;;;;;2.83;0.50;;;;;;;;;;5282508;28;20021;-78
2023/10/15 04:58:27;;;;;;;1.80;0.32;;;;;;;;;;5282134;28;20012;-79
2023/10/15 05:00:59;;;;;;;1.88;0.30;;;;;;;;;;5282340;28;20020;-76
2023/10/15 05:03:31;;;;;;;1.30;0.43;;;;;;;;;;5281599;28;20020;-76
2023/10/15 05:06:06;;;;;;;2.65;0.52;;;;;;;;;;5282584;28;20104;-77
2023/10/15 05:08:40;;;;;;;2.08;0.30;;;;;;;;;;5282401;28;20028;-78
2023/10/15 05:11:11;;;;;;;1.88;0.30;;;;;;;;;;5281685;28;20532;-77
2023/10/15 05:13:42;;;;;;;2.45;0.30;;;;;;;;;;5282219;28;20024;-78
2023/10/15 05:16:14;;;;;;;0.70;0.20;;;;;;;;;;5282433;28;20417;-78
2023/10/15 05:18:47;;;;;;;1.65;0.20;;;;;;;;;;5280959;28;20047;-78
2023/10/15 05:21:18;;;;;;;2.10;0.20;;;;;;;;;;5281899;28;20020;-78
2023/10/15 05:23:49;;;;;;;1.92;0.30;;;;;;;;;;5281775;28;20467;-78
2023/10/15 05:26:20;;;;;;;0.90;0.20;;;;;;;;;;5281580;28;20051;-78
2023/10/15 05:28:53;;;;;;;1.67;0.30;;;;;;;;;;5281989;28;20460;-80
2023/10/15 05:31:24;;;;;;;3.58;0.40;;;;;;;;;;5281200;28;20086;-80
2023/10/15 05:33:56;;;;;;;3.00;0.30;;;;;;;;;;5281946;28;20012;-78
2023/10/15 05:36:27;;;;;;;1.88;0.30;;;;;;;;;;5281995;28;20468;-80
2023/10/15 05:38:58;;;;;;;2.90;0.30;;;;;;;;;;5281091;28;20020;-79
2023/10/15 05:41:32;;;;;;;1.73;0.30;;;;;;;;;;5282451;28;20355;-80
2023/10/15 05:44:03;;;;;;;1.88;0.20;;;;;;;;;;5282211;28;20017;-79
2023/10/15 05:46:34;;;;;;;1.00;0.10;;;;;;;;;;5280918;28;20059;-79
2023/10/15 05:49:05;;;;;;;1.27;0.20;;;;;;;;;;5281513;28;20024;-79
2023/10/15 05:51:36;;;;;;;1.13;0.10;;;;;;;;;;5281887;28;20013;-80
2023/10/15 05:54:09;;;;;;;2.78;0.10;;;;;;;;;;5281139;28;20024;-79
2023/10/15 05:56:40;;;;;;;2.08;0.13;;;;;;;;;;5281982;28;20375;-79
2023/10/15 05:59:11;;;;;;;0.65;0.20;;;;;;;;;;5281783;28;20016;-78
2023/10/15 06:01:42;;;;;;;0.70;0.10;;;;;;;;;;5280841;28;20025;-76
2023/10/15 06:04:14;;;;;;;1.02;0.20;;;;;;;;;;5284804;28;20028;-77
2023/10/15 06:06:45;;;;;;;2.05;0.10;;;;;;;;;;5284835;28;20028;-79
2023/10/15 06:09:17;;;;;;;2.55;0.22;;;;;;;;;;5286368;28;20048;-78
2023/10/15 06:11:48;;;;;;;0.50;0.10;;;;;;;;;;5285570;28;20095;-79
2023/10/15 06:14:19;;;;;;;1.08;0.10;;;;;;;;;;5285066;28;20024;-80
2023/10/15 06:16:53;;;;;;;1.65;0.20;;;;;;;;;;5285293;28;20050;-81
2023/10/15 06:19:29;;;;;;;1.92;0.20;;;;;;;;;;5285812;28;20025;-81
2023/10/15 06:22:01;;;;;;;1.58;0.20;;;;;;;;;;5284827;28;20025;-81
2023/10/15 06:24:32;;;;;;;0.57;0.20;;;;;;;;;;5285069;28;20496;-80
2023/10/15 06:27:04;;;;;;;1.30;0.10;;;;;;;;;;5285676;28;20371;-81
2023/10/15 06:29:35;;;;;;;1.65;0.15;;;;;;;;;;5284836;28;20017;-80
2023/10/15 06:32:06;;;;;;;0.90;0.20;;;;;;;;;;5285486;28;20020;-80
2023/10/15 06:34:39;;;;;;;1.45;0.17;;;;;;;;;;5284275;28;20074;-79
2023/10/15 06:37:10;;;;;;;1.60;0.10;;;;;;;;;;5285200;28;20157;-79
2023/10/15 06:39:44;;;;;;;1.76;0.22;;;;;;;;;;5285182;28;20099;-80
2023/10/15 06:42:15;;;;;;;1.42;0.63;;;;;;;;;;5284536;28;20168;-79
2023/10/15 06:44:46;;;;;;;0.98;0.20;;;;;;;;;;5284955;28;20099;-80
2023/10/15 06:47:17;;;;;;;1.25;0.20;;;;;;;;;;5285096;28;20510;-81
2023/10/15 06:49:49;;;;;;;1.15;0.20;;;;;;;;;;5283805;28;20457;-79
2023/10/15 06:52:20;;;;;;;0.80;0.20;;;;;;;;;;5285180;28;20027;-79
2023/10/15 06:54:54;;;;;;;1.08;0.20;;;;;;;;;;5284100;28;20087;-79
2023/10/15 06:57:25;;;;;;;2.05;0.20;;;;;;;;;;5283926;28;20016;-79
2023/10/15 07:00:02;;;;;;;1.13;0.20;;;;;;;;;;5284416;28;20040;-79
2023/10/15 07:02:33;;;;;;;1.75;0.20;;;;;;;;;;5284270;28;20387;-79
2023/10/15 07:05:05;;;;;;;2.70;0.30;;;;;;;;;;5284506;28;20024;-80
2023/10/15 07:07:36;;;;;;;1.70;0.20;;;;;;;;;;5284474;28;20054;-81
2023/10/15 07:10:08;;;;;;;2.75;0.47;;;;;;;;;;5283512;28;20438;-79
2023/10/15 07:12:39;;;;;;;1.15;0.30;;;;;;;;;;5284185;28;20021;-79
2023/10/15 07:15:11;;;;;;;4.15;0.20;;;;;;;;;;5283903;28;20362;-80
2023/10/15 07:17:43;;;;;;;1.05;0.20;;;;;;;;;;5283887;28;20406;-78
2023/10/15 07:20:16;;;;;;;1.35;0.20;;;;;;;;;;5284298;28;20032;-80
2023/10/15 07:22:51;;;;;;;2.53;0.30;;;;;;;;;;5283956;28;20032;-78
2023/10/15 07:25:27;;;;;;;1.90;0.28;;;;;;;;;;5284116;28;20486;-78
2023/10/15 07:27:58;;;;;;;2.20;0.20;;;;;;;;;;5284647;28;20107;-80
2023/10/15 07:30:30;;;;;;;1.65;0.20;;;;;;;;;;5284321;28;20100;-79
2023/10/15 07:33:02;;;;;;;1.85;0.30;;;;;;;;;;5283396;28;20021;-78
2023/10/15 07:35:35;;;;;;;2.65;0.40;;;;;;;;;;5284144;28;20028;-76
2023/10/15 07:38:07;;;;;;;1.92;0.22;;;;;;;;;;5283518;28;20368;-80
2023/10/15 07:40:40;;;;;;;2.05;0.30;;;;;;;;;;5284017;28;20036;-79
2023/10/15 07:43:11;;;;;;;2.75;0.25;;;;;;;;;;5284036;28;20044;-81
2023/10/15 07:45:42;;;;;;;2.15;0.50;;;;;;;;;;5282935;28;20052;-81
2023/10/15 07:48:14;;;;;;;1.80;0.20;;;;;;;;;;5283859;28;20035;-81
2023/10/15 07:50:45;;;;;;;2.63;0.30;;;;;;;;;;5283640;28;20467;-81
2023/10/15 07:53:16;;;;;;;2.20;0.20;;;;;;;;;;5283280;28;20459;-81
2023/10/15 07:55:49;;;;;;;3.65;0.52;;;;;;;;;;5283488;28;20021;-79
2023/10/15 07:58:21;;;;;;;2.90;0.47;;;;;;;;;;5283753;28;20070;-80
2023/10/15 08:00:53;;;;;;;3.63;0.90;;;;;;;;;;5282654;28;20074;-79
2023/10/15 08:03:26;;;;;;;2.85;0.20;;;;;;;;;;5283667;28;20013;-80
2023/10/15 08:05:58;;;;;;;3.90;0.30;;;;;;;;;;5282818;28;20467;-80
2023/10/15 08:08:29;;;;;;;2.08;0.20;;;;;;;;;;5283489;28;20077;-79
2023/10/15 08:11:01;;;;;;;3.13;0.30;;;;;;;;;;5283478;28;20459;-80
2023/10/15 08:13:32;;;;;;;1.70;0.20;;;;;;;;;;5282993;28;20020;-79
2023/10/15 08:16:04;;;;;;;3.50;0.40;;;;;;;;;;5283176;28;20032;-79
2023/10/15 08:18:35;;;;;;;2.42;0.40;;;;;;;;;;5283361;28;20020;-78
2023/10/15 08:21:11;;;;;;;2.40;0.30;;;;;;;;;;5282460;28;20497;-78
2023/10/15 08:23:42;;;;;;;2.67;0.22;;;;;;;;;;5283430;28;20467;-79
2023/10/15 08:26:15;;;;;;;2.95;0.30;;;;;;;;;;5282548;28;20029;-78
2023/10/15 08:28:48;;;;;;;3.00;0.20;;;;;;;;;;5282289;28;20037;-79
2023/10/15 08:31:19;;;;;;;1.58;0.20;;;;;;;;;;5283060;28;20017;-80
2023/10/15 08:33:50;;;;;;;1.25;0.20;;;;;;;;;;5282361;28;20032;-81
2023/10/15 08:36:21;;;;;;;1.75;0.30;;;;;;;;;;5282459;28;20506;-82
2023/10/15 08:38:52;;;;;;;1.34;0.20;;;;;;;;;;5282571;28;20490;-80
2023/10/15 08:41:25;;;;;;;3.75;0.30;;;;;;;;;;5282310;28;20467;-80
2023/10/15 08:43:56;;;;;;;1.40;0.20;;;;;;;;;;5282726;28;20039;-81
2023/10/15 08:46:27;;;;;;;2.20;0.20;;;;;;;;;;5282351;28;20044;-81
2023/10/15 08:49:00;;;;;;;1.92;0.40;;;;;;;;;;5281997;28;20028;-80
2023/10/15 08:51:34;;;;;;;1.98;0.70;;;;;;;;;;5282317;28;20020;-79
2023/10/15 08:54:05;;;;;;;2.13;0.35;;;;;;;;;;5282431;28;20478;-78
2023/10/15 08:56:37;;;;;;;1.75;0.30;;;;;;;;;;5282937;28;20020;-79
2023/10/15 08:59:10;;;;;;;2.03;0.30;;;;;;;;;;5284019;28;20012;-78
2023/10/15 09:01:42;;;;;;;2.47;0.10;;;;;;;;;;5283209;28;20450;-78
2023/10/15 09:04:13;;;;;;;2.75;0.30;;;;;;;;;;5281759;28;20013;-79
2023/10/15 09:06:47;;;;;;;3.35;0.30;;;;;;;;;;5282103;28;20032;-79
2023/10/15 09:09:18;;;;;;;2.47;0.20;;;;;;;;;;5282170;28;20013;-80
2023/10/15 09:11:50;;;;;;;0.93;0.13;;;;;;;;;;5282588;28;20383;-80
2023/10/15 09:14:36;;;;;;;3.15;0.30;;;;;;;;;;5283107;28;20024;-80
2023/10/15 09:17:10;;;;;;;1.65;0.25;;;;;;;;;;5281936;28;20046;-80
2023/10/15 09:19:42;;;;;;;1.77;0.20;;;;;;;;;;5282541;28;20027;-81
2023/10/15 09:22:15;;;;;;;2.50;0.30;;;;;;;;;;5282604;28;20016;-79
2023/10/15 09:24:47;;;;;;;1.67;0.25;;;;;;;;;;5281116;28;20360;-80
2023/10/15 09:27:18;;;;;;;6.07;0.40;;;;;;;;;;5282748;28;20082;-79
2023/10/15 09:30:10;;;;;;;1.75;0.25;;;;;;;;;;5282242;28;20016;-79
2023/10/15 09:32:43;;;;;;;1.27;0.17;;;;;;;;;;5281674;28;20028;-80
2023/10/15 09:35:14;;;;;;;1.95;0.10;;;;;;;;;;5281994;28;20126;-81
2023/10/15 09:37:46;;;;;;;1.50;0.13;;;;;;;;;;5280717;28;20099;-79
2023/10/15 09:40:30;;;;;;;1.58;0.20;;;;;;;;;;5282004;28;20012;-82
2023/10/15 09:43:02;;;;;;;1.83;0.20;;;;;;;;;;5281411;28;20016;-81
2023/10/15 09:45:36;;;;;;;1.65;0.28;;;;;;;;;;5280799;28;20020;-81
2023/10/15 09:48:11;;;;;;;1.23;0.10;;;;;;;;;;5285566;28;20051;-79
2023/10/15 09:50:44;;;;;;;1.50;0.20;;;;;;;;;;5287066;28;20498;-80
2023/10/15 09:53:16;;;;;;;2.17;0.15;;;;;;;;;;5281211;28;20024;-77
2023/10/15 09:55:48;;;;;;;2.50;0.20;;;;;;;;;;5281499;28;20027;-77
2023/10/15 09:58:19;;;;;;;1.60;0.10;;;;;;;;;;5282002;28;20100;-79
2023/10/15 10:03:39;;;;;;;0.57;0.10;;;;;;;;;;5281395;28;20043;-81
2023/10/15 10:06:16;;;;;;;1.02;0.20;;;;;;;;;;5280938;28;20408;-79
2023/10/15 10:08:50;;;;;;;1.13;0.25;;;;;;;;;;5281104;28;20067;-78
2023/10/15 10:11:22;;;;;;;1.38;0.20;;;;;;;;;;5281689;28;20025;-78
2023/10/15 10:14:02;;;;;;;1.40;0.10;;;;;;;;;;5280046;28;20371;-79
2023/10/15 10:16:34;;;;;;;0.73;0.10;;;;;;;;;;5281516;28;20024;-78
2023/10/15 10:19:08;;;;;;;0.82;0.10;;;;;;;;;;5281560;28;20036;-79
2023/10/15 10:21:43;;;;;;;1.23;0.20;;;;;;;;;;5274841;28;20024;-78
2023/10/15 10:24:17;;;;;;;1.40;0.20;;;;;;;;;;5280370;28;20471;-78
2023/10/15 10:26:52;;;;;;;2.25;0.13;;;;;;;;;;5279901;28;20634;-77
2023/10/15 10:29:26;;;;;;;1.00;0.10;;;;;;;;;;5280698;28;20052;-78
2023/10/15 10:31:59;;;;;;;2.15;0.10;;;;;;;;;;5280355;28;20426;-79
2023/10/15 10:34:30;;;;;;;1.48;0.20;;;;;;;;;;5279546;28;20029;-79
2023/10/15 10:37:01;;;;;;;1.60;0.20;;;;;;;;;;5281126;28;20021;-78
2023/10/15 10:39:43;;;;;;;1.23;0.20;;;;;;;;;;5281347;28;20024;-79
2023/10/15 10:42:24;;;;;;;1.45;0.30;;;;;;;;;;5279242;28;20100;-79
2023/10/15 10:44:58;;;;;;;2.83;0.25;;;;;;;;;;5281010;28;20025;-78
2023/10/15 10:47:30;;;;;;;1.45;0.30;;;;;;;;;;5280860;28;20063;-80
2023/10/15 10:50:03;;;;;;;2.42;0.20;;;;;;;;;;5281230;28;20021;-79
2023/10/15 10:52:35;;;;;;;1.17;0.20;;;;;;;;;;5284876;28;20058;-80
2023/10/15 10:55:25;;;;;;;3.70;0.20;;;;;;;;;;5284164;28;20008;-78
2023/10/15 10:57:56;;;;;;;1.63;0.30;;;;;;;;;;5284891;28;20054;-80
2023/10/15 11:00:30;;;;;;;0.60;0.20;;;;;;;;;;5284397;28;20025;-79
2023/10/15 11:03:06;;;;;;;1.75;0.20;;;;;;;;;;5283911;28;20020;-80
2023/10/15 11:05:38;;;;;;;1.75;0.15;;;;;;;;;;5284568;28;20025;-80
2023/10/15 11:08:16;;;;;;;2.75;0.20;;;;;;;;;;5284048;28;20033;-80
2023/10/15 11:10:47;;;;;;;2.35;0.20;;;;;;;;;;5283364;28;20021;-80
2023/10/15 11:13:19;;;;;;;1.13;0.10;;;;;;;;;;5284785;28;20031;-82
2023/10/15 11:15:50;;;;;;;1.45;0.20;;;;;;;;;;5283492;28;20025;-79
2023/10/15 11:18:25;;;;;;;1.67;0.20;;;;;;;;;;5284660;28;20025;-78
2023/10/15 11:20:56;;;;;;;1.65;0.20;;;;;;;;;;5284345;28;20526;-79
2023/10/15 11:23:27;;;;;;;2.60;0.20;;;;;;;;;;5283386;28;20024;-81
2023/10/15 11:25:59;;;;;;;1.48;0.20;;;;;;;;;;5284195;28;20096;-83
2023/10/15 11:28:30;;;;;;;3.25;0.20;;;;;;;;;;5284224;28;20024;-80
2023/10/15 11:31:02;;;;;;;1.33;0.20;;;;;;;;;;5283254;28;20070;-81
2023/10/15 11:33:34;;;;;;;2.20;0.20;;;;;;;;;;5284348;28;20086;-81
2023/10/15 11:36:09;;;;;;;0.95;0.10;;;;;;;;;;5284320;28;20080;-79
2023/10/15 11:38:42;;;;;;;2.17;0.10;;;;;;;;;;5283347;28;20020;-80
2023/10/15 11:41:13;;;;;;;2.15;0.20;;;;;;;;;;5283717;28;20367;-79
2023/10/15 11:43:48;;;;;;;1.20;0.20;;;;;;;;;;5283667;28;20036;-78
2023/10/15 11:46:23;;;;;;;1.17;0.20;;;;;;;;;;5282816;28;20037;-78
2023/10/15 11:48:54;;;;;;;1.60;0.30;;;;;;;;;;5283753;28;20032;-78
2023/10/15 11:51:26;;;;;;;1.75;0.20;;;;;;;;;;5282740;28;20421;-79
2023/10/15 11:54:01;;;;;;;1.23;0.10;;;;;;;;;;5283829;28;20066;-78
2023/10/15 11:56:32;;;;;;;3.35;0.30;;;;;;;;;;5284036;28;20021;-76
2023/10/15 11:59:03;;;;;;;1.58;0.13;;;;;;;;;;5282887;28;20377;-77
2023/10/15 12:01:35;;;;;;;1.70;0.20;;;;;;;;;;5285560;28;20045;-78
2023/10/15 12:04:07;;;;;;;2.00;0.30;;;;;;;;;;5283354;28;20016;-77
2023/10/15 12:06:38;;;;;;;0.95;0.10;;;;;;;;;;5282880;28;20013;-78
2023/10/15 12:09:12;;;;;;;1.90;0.20;;;;;;;;;;5283299;28;20107;-78
2023/10/15 12:11:46;;;;;;;1.85;0.60;;;;;;;;;;5283502;28;20023;-77
2023/10/15 12:14:18;;;;;;;1.40;0.15;;;;;;;;;;5282527;28;20016;-78
2023/10/15 12:16:49;;;;;;;1.00;0.20;;;;;;;;;;5282867;28;20486;-81
2023/10/15 12:19:20;;;;;;;1.27;0.20;;;;;;;;;;5282701;28;20082;-80
2023/10/15 12:21:51;;;;;;;3.67;0.22;;;;;;;;;;5282248;28;20299;-80
2023/10/15 12:24:23;;;;;;;2.53;0.20;;;;;;;;;;5282729;28;20070;-79
2023/10/15 12:26:54;;;;;;;1.05;0.10;;;;;;;;;;5282092;28;20375;-78
2023/10/15 12:29:28;;;;;;;0.93;0.10;;;;;;;;;;5282894;28;20039;-80
2023/10/15 12:31:59;;;;;;;2.55;0.20;;;;;;;;;;5283542;28;20099;-80
2023/10/15 12:34:30;;;;;;;1.98;0.22;;;;;;;;;;5282420;28;20099;-81
2023/10/15 12:37:07;;;;;;;2.38;0.38;;;;;;;;;;5282842;28;20008;-80
2023/10/15 12:39:40;;;;;;;3.95;0.20;;;;;;;;;;5282646;28;20095;-79
2023/10/15 12:42:11;;;;;;;2.30;0.20;;;;;;;;;;5281967;28;20019;-78
2023/10/15 12:44:44;;;;;;;1.25;0.20;;;;;;;;;;5282459;28;20025;-79
2023/10/15 12:47:15;;;;;;;2.58;0.20;;;;;;;;;;5281758;28;20419;-79
2023/10/15 12:49:46;;;;;;;0.82;0.20;;;;;;;;;;5282069;28;20020;-79
2023/10/15 12:52:18;;;;;;;1.40;0.10;;;;;;;;;;5282448;28;20380;-77
2023/10/15 12:54:49;;;;;;;2.55;0.38;;;;;;;;;;5281387;28;20294;-80
2023/10/15 12:57:22;;;;;;;2.87;0.10;;;;;;;;;;5282190;28;20077;-78
2023/10/15 12:59:53;;;;;;;1.67;0.40;;;;;;;;;;5281868;28;20316;-78
2023/10/15 13:02:24;;;;;;;2.67;0.57;;;;;;;;;;5281449;28;20449;-75
2023/10/15 13:04:55;;;;;;;3.17;0.20;;;;;;;;;;5282025;28;20625;-76
2023/10/15 13:07:27;;;;;;;1.50;0.10;;;;;;;;;;5281643;28;20631;-78
2023/10/15 13:09:58;;;;;;;3.50;0.43;;;;;;;;;;5281187;28;20610;-76
2023/10/15 13:12:29;;;;;;;2.35;0.10;;;;;;;;;;5281424;28;20161;-79
2023/10/15 13:15:00;;;;;;;3.55;0.30;;;;;;;;;;5281895;28;20020;-76
2023/10/15 13:17:31;;;;;;;4.95;0.63;;;;;;;;;;5281271;28;20056;-79
2023/10/15 13:20:06;;;;;;;2.08;0.20;;;;;;;;;;5282056;28;20019;-78
2023/10/15 13:22:38;;;;;;;2.33;0.20;;;;;;;;;;5281043;28;20267;-78
2023/10/15 13:25:12;;;;;;;1.60;0.20;;;;;;;;;;5281540;28;20008;-78
2023/10/15 13:27:44;;;;;;;3.00;0.20;;;;;;;;;;5281490;28;20498;-80
2023/10/15 13:30:18;;;;;;;3.50;0.30;;;;;;;;;;5281249;28;20099;-80
2023/10/15 13:32:49;;;;;;;1.23;0.30;;;;;;;;;;5281498;28;20044;-79
2023/10/15 13:35:20;;;;;;;3.17;0.22;;;;;;;;;;5281889;28;20109;-79
2023/10/15 13:37:53;;;;;;;2.08;0.30;;;;;;;;;;5280705;28;20380;-80
2023/10/15 13:40:24;;;;;;;2.15;0.30;;;;;;;;;;5281616;28;20474;-80
2023/10/15 13:42:58;;;;;;;3.03;0.30;;;;;;;;;;5281413;28;20094;-80
2023/10/15 13:45:29;;;;;;;1.92;0.20;;;;;;;;;;5280806;28;20008;-81
2023/10/15 13:48:00;;;;;;;3.70;0.20;;;;;;;;;;5280491;28;20058;-83
2023/10/15 13:50:31;;;;;;;3.67;0.30;;;;;;;;;;5278131;28;20021;-82
2023/10/15 13:53:03;;;;;;;2.53;0.20;;;;;;;;;;5279524;28;20818;-82
2023/10/15 13:55:34;;;;;;;2.90;0.30;;;;;;;;;;5279539;28;20024;-82
2023/10/15 13:58:06;;;;;;;3.25;0.20;;;;;;;;;;5278933;28;20024;-81
2023/10/15 14:00:37;;;;;;;1.13;0.20;;;;;;;;;;5279584;28;20100;-83
2023/10/15 14:03:09;;;;;;;1.85;0.30;;;;;;;;;;5279470;28;20024;-82
2023/10/15 14:05:40;;;;;;;2.70;0.20;;;;;;;;;;5278888;28;20028;-82
2023/10/15 14:08:12;;;;;;;1.48;0.20;;;;;;;;;;5279336;28;20052;-83
2023/10/15 14:10:43;;;;;;;2.47;0.20;;;;;;;;;;5279530;28;20035;-83
2023/10/15 14:13:14;;;;;;;1.58;0.10;;;;;;;;;;5278516;28;20044;-83
2023/10/15 14:15:46;;;;;;;1.40;0.20;;;;;;;;;;5279029;28;20462;-83
2023/10/15 14:18:17;;;;;;;2.47;0.17;;;;;;;;;;5279629;28;20023;-74
2023/10/15 14:20:50;;;;;;;1.98;0.20;;;;;;;;;;5279977;28;20428;-82
2023/10/15 14:23:21;;;;;;;2.08;0.17;;;;;;;;;;5281713;28;20030;-82
2023/10/15 14:25:53;;;;;;;1.65;0.20;;;;;;;;;;5284333;28;20028;-83
2023/10/15 14:28:25;;;;;;;1.77;0.22;;;;;;;;;;5285782;28;20029;-81
2023/10/15 14:30:56;;;;;;;1.85;0.15;;;;;;;;;;5285321;28;20019;-82
2023/10/15 14:33:27;;;;;;;0.80;0.10;;;;;;;;;;5284711;28;20031;-80
2023/10/15 14:36:02;;;;;;;1.15;0.15;;;;;;;;;;5285408;28;20467;-82
2023/10/15 14:38:33;;;;;;;1.42;0.10;;;;;;;;;;5285175;28;20027;-81
2023/10/15 14:41:04;;;;;;;1.65;0.10;;;;;;;;;;5284662;28;20477;-82
2023/10/15 14:43:36;;;;;;;2.80;0.20;;;;;;;;;;5285244;28;20020;-81
2023/10/15 14:46:08;;;;;;;1.50;0.10;;;;;;;;;;5284792;28;20071;-81
2023/10/15 14:48:39;;;;;;;1.02;0.20;;;;;;;;;;5284269;28;20032;-81
2023/10/15 14:51:10;;;;;;;1.15;0.10;;;;;;;;;;5285099;28;20102;-81
2023/10/15 14:53:41;;;;;;;1.00;0.15;;;;;;;;;;5284821;28;20071;-80
2023/10/15 14:56:12;;;;;;;2.33;0.10;;;;;;;;;;5284396;28;20349;-81
2023/10/15 14:58:44;;;;;;;1.55;0.10;;;;;;;;;;5285254;28;20028;-80
2023/10/15 15:01:15;;;;;;;1.58;0.10;;;;;;;;;;5284661;28;20021;-82
2023/10/15 15:03:46;;;;;;;1.17;0.10;;;;;;;;;;5284780;28;20016;-82
2023/10/15 15:06:17;;;;;;;1.17;0.20;;;;;;;;;;5285178;28;20133;-82
2023/10/15 15:08:49;;;;;;;0.52;0.10;;;;;;;;;;5283466;28;20028;-81
2023/10/15 15:11:20;;;;;;;1.70;0.10;;;;;;;;;;5284776;28;20456;-81
2023/10/15 15:13:52;;;;;;;2.55;0.20;;;;;;;;;;5284203;28;20020;-81
2023/10/15 15:16:24;;;;;;;1.77;0.13;;;;;;;;;;5283793;28;20012;-80
2023/10/15 15:18:55;;;;;;;1.33;0.20;;;;;;;;;;5284508;28;20024;-80
2023/10/15 15:21:26;;;;;;;0.70;0.10;;;;;;;;;;5284364;28;20016;-81
2023/10/15 15:23:57;;;;;;;2.00;0.35;;;;;;;;;;5283521;28;20474;-81
2023/10/15 15:26:28;;;;;;;1.73;0.50;;;;;;;;;;5284652;28;20193;-81
2023/10/15 15:28:59;;;;;;;1.65;0.50;;;;;;;;;;5283611;28;20041;-81